Time;durP1;ratioP1;P1;durP2;ratioP2;P2;SDS_P1;SDS_P2;PMS_P1;PMS_P2;Temp;Humidity;BMP_temperature;BMP_pressure;BME280_temperature;BME280_humidity;BME280_pressure;Samples;Min_cycle;Max_cycle;Signal;HPM_P1;HPM_P2
2023/03/02 00:01:16;;;;;;;;;;;12.50;47.10;;;;;;5036294;28;19970;-87
2023/03/02 00:03:42;;;;;;;;;;;12.50;47.00;;;;;;5028719;28;19944;-87
2023/03/02 00:06:10;;;;;;;;;;;12.60;47.00;;;;;;5036221;28;20293;-87
2023/03/02 00:08:37;;;;;;;;;;;12.60;47.00;;;;;;5036557;28;20007;-87
2023/03/02 00:11:05;;;;;;;;;;;12.60;47.00;;;;;;5037722;28;19916;-87
2023/03/02 00:13:33;;;;;;;;;;;12.60;47.00;;;;;;5036073;28;19974;-87
2023/03/02 00:15:58;;;;;;;;;;;12.60;47.10;;;;;;5034935;28;20003;-87
2023/03/02 00:18:24;;;;;;;;;;;12.60;47.10;;;;;;5052781;28;20023;-87
2023/03/02 00:20:49;;;;;;;;;;;12.60;47.10;;;;;;5035030;28;19912;-87
2023/03/02 00:23:18;;;;;;;;;;;12.60;47.10;;;;;;5035584;28;19923;-87
2023/03/02 00:25:44;;;;;;;;;;;12.60;47.10;;;;;;5034944;28;19952;-87
2023/03/02 00:28:09;;;;;;;;;;;12.60;47.10;;;;;;5035331;28;19917;-87
2023/03/02 00:30:39;;;;;;;;;;;12.60;47.10;;;;;;5036387;28;19909;-87
2023/03/02 00:33:08;;;;;;;;;;;12.60;47.10;;;;;;5038288;28;19920;-87
2023/03/02 00:35:40;;;;;;;;;;;12.60;47.20;;;;;;5058708;28;19912;-87
2023/03/02 00:38:06;;;;;;;;;;;12.60;47.20;;;;;;5040979;28;19909;-87
2023/03/02 00:40:32;;;;;;;;;;;12.60;47.30;;;;;;5057306;28;19917;-87
2023/03/02 00:42:57;;;;;;;;;;;12.60;47.30;;;;;;5040616;28;19913;-87
2023/03/02 00:45:26;;;;;;;;;;;12.50;47.40;;;;;;5041239;28;20198;-87
2023/03/02 00:47:51;;;;;;;;;;;12.50;47.40;;;;;;5059092;28;19963;-87
2023/03/02 00:50:17;;;;;;;;;;;12.50;47.50;;;;;;5058945;28;19913;-88
2023/03/02 00:52:42;;;;;;;;;;;12.50;47.60;;;;;;5041099;28;20160;-87
2023/03/02 00:55:08;;;;;;;;;;;12.40;47.60;;;;;;5038940;28;19952;-87
2023/03/02 00:57:34;;;;;;;;;;;12.40;47.70;;;;;;5038314;28;20191;-87
2023/03/02 01:00:04;;;;;;;;;;;12.40;47.80;;;;;;5040032;28;20344;-88
2023/03/02 01:02:33;;;;;;;;;;;12.40;48.30;;;;;;5039783;28;19917;-87
2023/03/02 01:04:59;;;;;;;;;;;12.30;47.90;;;;;;5039617;28;19909;-87
2023/03/02 01:07:27;;;;;;;;;;;12.30;47.90;;;;;;5039438;28;20174;-87
2023/03/02 01:09:52;;;;;;;;;;;12.30;48.00;;;;;;5055522;28;20244;-87
2023/03/02 01:12:21;;;;;;;;;;;12.30;48.10;;;;;;5056612;28;19963;-87
2023/03/02 01:14:47;;;;;;;;;;;12.20;48.10;;;;;;5037727;28;19913;-87
2023/03/02 01:17:16;;;;;;;;;;;12.20;48.20;;;;;;5038800;28;20367;-87
2023/03/02 01:19:42;;;;;;;;;;;12.20;48.20;;;;;;5037854;28;19944;-87
2023/03/02 01:22:08;;;;;;;;;;;12.20;48.30;;;;;;5037954;28;19913;-87
2023/03/02 01:24:36;;;;;;;;;;;12.20;48.40;;;;;;5038911;28;19919;-87
2023/03/02 01:27:02;;;;;;;;;;;12.20;48.40;;;;;;5036859;28;19919;-86
2023/03/02 01:29:27;;;;;;;;;;;12.20;48.30;;;;;;5055525;28;19913;-87
2023/03/02 01:31:53;;;;;;;;;;;12.30;48.30;;;;;;5055765;28;19909;-87
2023/03/02 01:34:19;;;;;;;;;;;12.30;48.20;;;;;;5037562;28;19978;-87
2023/03/02 01:36:44;;;;;;;;;;;12.30;48.20;;;;;;5038495;28;19916;-87
2023/03/02 01:39:16;;;;;;;;;;;12.30;48.10;;;;;;5038471;28;19925;-87
2023/03/02 01:41:42;;;;;;;;;;;12.30;48.10;;;;;;5039218;28;19924;-86
2023/03/02 01:44:26;;;;;;;;;;;12.40;48.20;;;;;;5038412;28;19923;-86
2023/03/02 01:46:52;;;;;;;;;;;12.40;48.20;;;;;;5055625;28;19908;-87
2023/03/02 01:49:18;;;;;;;;;;;12.40;48.20;;;;;;5039947;28;20066;-87
2023/03/02 01:51:45;;;;;;;;;;;12.30;48.20;;;;;;5039689;28;20250;-87
2023/03/02 01:54:21;;;;;;;;;;;12.30;48.30;;;;;;5039216;28;19905;-87
2023/03/02 01:56:49;;;;;;;;;;;12.30;48.30;;;;;;5040240;28;19908;-87
2023/03/02 01:59:20;;;;;;;;;;;12.30;48.40;;;;;;5039773;28;19916;-86
2023/03/02 02:01:50;;;;;;;;;;;12.30;48.40;;;;;;5040022;28;19913;-87
2023/03/02 02:04:16;;;;;;;;;;;12.30;48.40;;;;;;5040152;28;20270;-86
2023/03/02 02:06:45;;;;;;;;;;;12.30;48.50;;;;;;5039919;28;20016;-86
2023/03/02 02:09:15;;;;;;;;;;;12.30;48.50;;;;;;5058000;28;19928;-87
2023/03/02 02:11:44;;;;;;;;;;;12.20;48.50;;;;;;5057767;28;19920;-86
2023/03/02 02:14:09;;;;;;;;;;;12.20;48.50;;;;;;5039236;28;19944;-87
2023/03/02 02:16:36;;;;;;;;;;;12.20;48.50;;;;;;5040094;28;20037;-86
2023/03/02 02:19:07;;;;;;;;;;;12.20;48.50;;;;;;5056928;28;19920;-86
2023/03/02 02:21:32;;;;;;;;;;;12.30;48.50;;;;;;5038930;28;19913;-87
2023/03/02 02:24:12;;;;;;;;;;;12.30;48.40;;;;;;5037566;28;19919;-86
2023/03/02 02:26:57;;;;;;;;;;;12.30;48.40;;;;;;5037047;28;20018;-86
2023/03/02 02:29:24;;;;;;;;;;;12.30;48.30;;;;;;5036643;28;20251;-86
2023/03/02 02:31:54;;;;;;;;;;;12.30;48.20;;;;;;5034556;28;20049;-86
2023/03/02 02:34:26;;;;;;;;;;;12.40;48.30;;;;;;5035870;28;19965;-86
2023/03/02 02:36:57;;;;;;;;;;;12.40;48.30;;;;;;5035055;28;20149;-86
2023/03/02 02:39:28;;;;;;;;;;;12.40;48.20;;;;;;5052196;28;20019;-86
2023/03/02 02:41:55;;;;;;;;;;;12.40;48.20;;;;;;5049688;28;19924;-86
2023/03/02 02:44:20;;;;;;;;;;;12.30;48.20;;;;;;5034028;28;19924;-86
2023/03/02 02:46:46;;;;;;;;;;;12.30;48.20;;;;;;5035246;28;19932;-86
2023/03/02 02:49:33;;;;;;;;;;;12.30;48.20;;;;;;5035551;28;20290;-86
2023/03/02 02:52:01;;;;;;;;;;;12.30;48.20;;;;;;5051781;28;19917;-86
2023/03/02 02:54:29;;;;;;;;;;;12.20;48.20;;;;;;5036223;28;19909;-86
2023/03/02 02:56:55;;;;;;;;;;;12.20;48.20;;;;;;5037949;28;19988;-86
2023/03/02 02:59:23;;;;;;;;;;;12.20;48.20;;;;;;5038766;28;20179;-86
2023/03/02 03:01:51;;;;;;;;;;;12.20;48.20;;;;;;5039051;28;19913;-86
2023/03/02 03:04:18;;;;;;;;;;;12.20;48.10;;;;;;5039858;28;19920;-86
2023/03/02 03:06:55;;;;;;;;;;;12.20;48.50;;;;;;5055859;28;19913;-86
2023/03/02 03:09:21;;;;;;;;;;;12.30;48.10;;;;;;5039541;28;19908;-86
2023/03/02 03:11:51;;;;;;;;;;;12.30;48.00;;;;;;5039731;28;20354;-86
2023/03/02 03:14:18;;;;;;;;;;;12.40;48.00;;;;;;5056051;28;19936;-86
2023/03/02 03:16:49;;;;;;;;;;;12.40;48.10;;;;;;5038403;28;19956;-86
2023/03/02 03:19:24;;;;;;;;;;;12.30;48.00;;;;;;5036114;28;19951;-86
2023/03/02 03:21:50;;;;;;;;;;;12.30;48.00;;;;;;5038192;28;20052;-86
2023/03/02 03:24:19;;;;;;;;;;;12.40;48.00;;;;;;5056177;28;19951;-86
2023/03/02 03:26:45;;;;;;;;;;;12.30;48.00;;;;;;5039087;28;19909;-86
2023/03/02 03:29:15;;;;;;;;;;;12.30;48.00;;;;;;5056183;28;19915;-86
2023/03/02 03:31:44;;;;;;;;;;;12.30;48.00;;;;;;5037947;28;19959;-86
2023/03/02 03:34:09;;;;;;;;;;;12.30;48.00;;;;;;5037791;28;19920;-86
2023/03/02 03:36:36;;;;;;;;;;;12.30;48.00;;;;;;5036829;28;20198;-86
2023/03/02 03:39:05;;;;;;;;;;;12.20;48.40;;;;;;5036555;28;19959;-86
2023/03/02 03:41:34;;;;;;;;;;;12.20;48.00;;;;;;5037467;28;19916;-86
2023/03/02 03:43:59;;;;;;;;;;;12.10;48.10;;;;;;5037049;28;19963;-86
2023/03/02 03:46:26;;;;;;;;;;;12.00;48.10;;;;;;5037567;28;19908;-86
2023/03/02 03:48:55;;;;;;;;;;;12.00;48.20;;;;;;5036206;28;19940;-86
2023/03/02 03:51:23;;;;;;;;;;;11.90;48.30;;;;;;5037035;28;19932;-86
2023/03/02 03:53:58;;;;;;;;;;;11.90;48.40;;;;;;5036907;28;19920;-86
2023/03/02 03:56:37;;;;;;;;;;;11.80;48.50;;;;;;5036543;28;19909;-86
2023/03/02 03:59:06;;;;;;;;;;;11.70;48.60;;;;;;5036649;28;19919;-86
2023/03/02 04:01:39;;;;;;;;;;;11.60;49.00;;;;;;5054415;28;20003;-86
2023/03/02 04:04:10;;;;;;;;;;;11.60;48.80;;;;;;5053162;28;19909;-86
2023/03/02 04:06:35;;;;;;;;;;;11.50;48.90;;;;;;5036750;28;19939;-86
2023/03/02 04:09:05;;;;;;;;;;;11.40;48.80;;;;;;5035027;28;19987;-86
2023/03/02 04:11:34;;;;;;;;;;;11.50;48.90;;;;;;5036575;28;19919;-86
2023/03/02 04:14:03;;;;;;;;;;;11.90;48.50;;;;;;5037226;28;19917;-86
2023/03/02 04:16:29;;;;;;;;;;;12.60;47.70;;;;;;5037502;28;19909;-86
2023/03/02 04:18:55;;;;;;;;;;;13.00;47.10;;;;;;5035732;28;19974;-86
2023/03/02 04:21:23;;;;;;;;;;;13.30;46.70;;;;;;5035417;28;19917;-86
2023/03/02 04:23:49;;;;;;;;;;;13.50;46.40;;;;;;5034672;28;19970;-86
2023/03/02 04:26:15;;;;;;;;;;;13.70;46.10;;;;;;5052750;28;19921;-86
2023/03/02 04:28:41;;;;;;;;;;;13.90;45.90;;;;;;5035366;28;19919;-86
2023/03/02 04:31:06;;;;;;;;;;;14.20;45.60;;;;;;5051483;28;19948;-86
2023/03/02 04:33:32;;;;;;;;;;;14.40;45.30;;;;;;5034593;28;19967;-86
2023/03/02 04:36:01;;;;;;;;;;;14.60;45.00;;;;;;5052904;28;19948;-86
2023/03/02 04:38:28;;;;;;;;;;;14.70;44.80;;;;;;5035752;28;20233;-86
2023/03/02 04:40:57;;;;;;;;;;;14.80;44.60;;;;;;5034145;28;20465;-86
2023/03/02 04:43:26;;;;;;;;;;;14.80;44.50;;;;;;5035304;28;19913;-86
2023/03/02 04:45:55;;;;;;;;;;;14.80;44.60;;;;;;5034851;28;20167;-86
2023/03/02 04:48:24;;;;;;;;;;;14.60;44.70;;;;;;5035802;28;20203;-86
2023/03/02 04:50:50;;;;;;;;;;;14.50;44.80;;;;;;5035187;28;20176;-86
2023/03/02 04:53:18;;;;;;;;;;;14.40;44.90;;;;;;5034449;28;19915;-86
2023/03/02 04:55:44;;;;;;;;;;;14.30;45.10;;;;;;5035930;28;19909;-86
2023/03/02 04:58:09;;;;;;;;;;;14.10;45.20;;;;;;5053229;28;20201;-86
2023/03/02 05:00:35;;;;;;;;;;;14.00;45.40;;;;;;5034593;28;19922;-86
2023/03/02 05:03:01;;;;;;;;;;;13.80;45.50;;;;;;5034566;28;19919;-86
2023/03/02 05:05:30;;;;;;;;;;;13.70;45.70;;;;;;5034365;28;19917;-86
2023/03/02 05:07:59;;;;;;;;;;;13.50;45.90;;;;;;5033757;28;19982;-86
2023/03/02 05:10:28;;;;;;;;;;;13.30;46.10;;;;;;5034451;28;19955;-86
2023/03/02 05:12:54;;;;;;;;;;;13.20;46.30;;;;;;5033526;28;19970;-86
2023/03/02 05:15:20;;;;;;;;;;;13.10;46.50;;;;;;5033331;28;19912;-86
2023/03/02 05:18:04;;;;;;;;;;;12.90;46.60;;;;;;5034025;28;19944;-86
2023/03/02 05:20:33;;;;;;;;;;;12.80;46.70;;;;;;5033778;28;19924;-86
2023/03/02 05:23:04;;;;;;;;;;;12.70;46.90;;;;;;5035474;28;19913;-86
2023/03/02 05:25:33;;;;;;;;;;;12.60;47.10;;;;;;5034588;28;20466;-85
2023/03/02 05:27:59;;;;;;;;;;;12.40;47.20;;;;;;5035113;28;19908;-86
2023/03/02 05:30:25;;;;;;;;;;;12.30;47.40;;;;;;5053359;28;19920;-86
2023/03/02 05:32:51;;;;;;;;;;;12.20;47.50;;;;;;5052628;28;19995;-86
2023/03/02 05:35:18;;;;;;;;;;;12.10;47.60;;;;;;5035584;28;19931;-86
2023/03/02 05:37:43;;;;;;;;;;;12.10;47.60;;;;;;5036058;28;19909;-86
2023/03/02 05:40:16;;;;;;;;;;;12.10;47.60;;;;;;5052076;28;19928;-86
2023/03/02 05:42:42;;;;;;;;;;;12.00;47.60;;;;;;5034130;28;19951;-86
2023/03/02 05:45:15;;;;;;;;;;;12.00;47.60;;;;;;5034972;28;19909;-86
2023/03/02 05:47:44;;;;;;;;;;;12.10;47.50;;;;;;5035604;28;20198;-86
2023/03/02 05:50:12;;;;;;;;;;;12.20;47.30;;;;;;5034317;28;19908;-86
2023/03/02 05:52:41;;;;;;;;;;;12.40;47.10;;;;;;5052452;28;19909;-86
2023/03/02 05:55:09;;;;;;;;;;;12.60;46.80;;;;;;5035625;28;20115;-86
2023/03/02 05:57:38;;;;;;;;;;;12.90;46.40;;;;;;5035100;28;19905;-86
2023/03/02 06:03:08;;;;;;;;;;;13.60;45.80;;;;;;5050537;28;19923;-86
2023/03/02 06:05:36;;;;;;;;;;;14.10;45.30;;;;;;5033951;28;19913;-86
2023/03/02 06:08:02;;;;;;;;;;;14.40;45.00;;;;;;5032258;28;19919;-86
2023/03/02 06:10:27;;;;;;;;;;;14.70;44.90;;;;;;5031383;28;20041;-86
2023/03/02 06:12:56;;;;;;;;;;;14.80;44.70;;;;;;5031520;28;19954;-86
2023/03/02 06:15:22;;;;;;;;;;;14.90;44.70;;;;;;5031478;28;20218;-86
2023/03/02 06:17:50;;;;;;;;;;;15.00;44.60;;;;;;5030042;28;19998;-86
2023/03/02 06:20:17;;;;;;;;;;;14.90;44.70;;;;;;5049360;28;19927;-86
2023/03/02 06:22:44;;;;;;;;;;;14.80;44.80;;;;;;5037897;28;19931;-86
2023/03/02 06:25:11;;;;;;;;;;;14.60;45.00;;;;;;5033635;28;20271;-86
2023/03/02 06:27:37;;;;;;;;;;;14.50;45.30;;;;;;5032161;28;20060;-86
2023/03/02 06:30:03;;;;;;;;;;;14.30;45.50;;;;;;5032027;28;19915;-86
2023/03/02 06:32:32;;;;;;;;;;;14.10;45.80;;;;;;5029424;28;19909;-86
2023/03/02 06:34:59;;;;;;;;;;;13.90;46.00;;;;;;5030143;28;20119;-86
2023/03/02 06:37:27;;;;;;;;;;;13.80;46.30;;;;;;5031460;28;20117;-86
2023/03/02 06:39:53;;;;;;;;;;;13.60;46.50;;;;;;5033048;28;19989;-86
2023/03/02 06:42:19;;;;;;;;;;;13.40;46.70;;;;;;5031474;28;20225;-86
2023/03/02 06:44:50;;;;;;;;;;;13.30;47.00;;;;;;5028808;28;19908;-86
2023/03/02 06:47:18;;;;;;;;;;;13.20;47.20;;;;;;5047971;28;20141;-86
2023/03/02 06:49:47;;;;;;;;;;;13.10;47.30;;;;;;5046352;28;19991;-86
2023/03/02 06:52:13;;;;;;;;;;;13.00;47.50;;;;;;5025511;28;19909;-86
2023/03/02 06:54:38;;;;;;;;;;;12.90;47.60;;;;;;5026251;28;20001;-86
2023/03/02 06:57:04;;;;;;;;;;;12.80;47.70;;;;;;5026896;28;19919;-86
2023/03/02 06:59:33;;;;;;;;;;;13.10;47.70;;;;;;5028258;28;19944;-86
2023/03/02 07:01:58;;;;;;;;;;;13.50;47.50;;;;;;5045175;28;19931;-86
2023/03/02 07:04:24;;;;;;;;;;;14.10;46.90;;;;;;5051648;28;19897;-86
2023/03/02 07:06:49;;;;;;;;;;;14.60;46.20;;;;;;5033296;28;19913;-86
2023/03/02 07:09:18;;;;;;;;;;;15.00;45.70;;;;;;5029172;28;20268;-86
2023/03/02 07:11:44;;;;;;;;;;;15.30;45.10;;;;;;5030344;28;20324;-86
2023/03/02 07:14:09;;;;;;;;;;;15.60;44.70;;;;;;5031537;28;19967;-86
2023/03/02 07:16:35;;;;;;;;;;;15.90;44.30;;;;;;5031395;28;19967;-86
2023/03/02 07:19:01;;;;;;;;;;;16.20;44.00;;;;;;5030555;28;19916;-86
2023/03/02 07:21:26;;;;;;;;;;;16.50;43.70;;;;;;5028723;28;20183;-85
2023/03/02 07:23:54;;;;;;;;;;;16.70;43.30;;;;;;5045886;28;20297;-86
2023/03/02 07:26:20;;;;;;;;;;;17.00;43.00;;;;;;5027311;28;19966;-85
2023/03/02 07:28:46;;;;;;;;;;;17.20;42.60;;;;;;5027845;28;19908;-85
2023/03/02 07:31:11;;;;;;;;;;;17.40;42.40;;;;;;5028513;28;19920;-86
2023/03/02 07:33:37;;;;;;;;;;;17.60;42.10;;;;;;5028693;28;19938;-86
2023/03/02 07:36:06;;;;;;;;;;;17.90;41.80;;;;;;5028965;28;20202;-86
2023/03/02 07:38:35;;;;;;;;;;;18.40;41.30;;;;;;5029567;28;19971;-86
2023/03/02 07:41:04;;;;;;;;;;;18.90;40.70;;;;;;5047361;28;19975;-86
2023/03/02 07:43:30;;;;;;;;;;;19.50;40.00;;;;;;5030997;28;20399;-86
2023/03/02 07:46:00;;;;;;;;;;;20.10;39.40;;;;;;5031711;28;19916;-86
2023/03/02 07:48:26;;;;;;;;;;;20.60;38.90;;;;;;5031155;28;19916;-86
2023/03/02 07:50:56;;;;;;;;;;;21.00;38.50;;;;;;5049544;28;19909;-87
2023/03/02 07:53:24;;;;;;;;;;;21.30;38.10;;;;;;5030117;28;20251;-87
2023/03/02 07:55:52;;;;;;;;;;;21.50;37.80;;;;;;5029493;28;19935;-86
2023/03/02 07:58:18;;;;;;;;;;;21.60;37.60;;;;;;5029091;28;19913;-87
2023/03/02 08:00:43;;;;;;;;;;;21.80;37.50;;;;;;5028060;28;20255;-87
2023/03/02 08:03:09;;;;;;;;;;;21.90;37.30;;;;;;5028298;28;20304;-87
2023/03/02 08:05:35;;;;;;;;;;;21.90;37.20;;;;;;5043637;28;20297;-87
2023/03/02 08:08:00;;;;;;;;;;;22.00;37.10;;;;;;5045894;28;19952;-87
2023/03/02 08:10:25;;;;;;;;;;;22.10;37.10;;;;;;5026496;28;20012;-87
2023/03/02 08:12:54;;;;;;;;;;;22.10;37.00;;;;;;5029015;28;20065;-87
2023/03/02 08:15:23;;;;;;;;;;;22.10;36.90;;;;;;5027131;28;20196;-87
2023/03/02 08:17:51;;;;;;;;;;;22.20;36.80;;;;;;5026795;28;20186;-87
2023/03/02 08:20:20;;;;;;;;;;;22.10;36.70;;;;;;5044763;28;19980;-87
2023/03/02 08:22:48;;;;;;;;;;;22.20;36.70;;;;;;5026272;28;20091;-87
2023/03/02 08:25:14;;;;;;;;;;;22.30;36.50;;;;;;5026904;28;20011;-87
2023/03/02 08:27:39;;;;;;;;;;;22.20;36.50;;;;;;5027187;28;20003;-87
2023/03/02 08:30:06;;;;;;;;;;;22.20;36.40;;;;;;5026965;28;19909;-86
2023/03/02 08:32:32;;;;;;;;;;;22.30;36.30;;;;;;5025261;28;19909;-87
2023/03/02 08:34:58;;;;;;;;;;;22.40;36.30;;;;;;5027611;28;19956;-87
2023/03/02 08:37:23;;;;;;;;;;;22.40;36.20;;;;;;5026208;28;19955;-86
2023/03/02 08:39:50;;;;;;;;;;;22.40;36.10;;;;;;5027860;28;20231;-87
2023/03/02 08:42:18;;;;;;;;;;;22.50;36.00;;;;;;5029026;28;19917;-87
2023/03/02 08:44:44;;;;;;;;;;;22.50;35.90;;;;;;5028019;28;19909;-87
2023/03/02 08:47:10;;;;;;;;;;;22.60;35.80;;;;;;5026675;28;19916;-87
2023/03/02 08:49:38;;;;;;;;;;;22.70;35.70;;;;;;5027113;28;19920;-87
2023/03/02 08:52:04;;;;;;;;;;;22.70;35.70;;;;;;5026095;28;19919;-87
2023/03/02 08:54:33;;;;;;;;;;;22.80;35.60;;;;;;5027325;28;20222;-87
2023/03/02 08:56:58;;;;;;;;;;;22.90;35.40;;;;;;5033320;28;20378;-87
2023/03/02 08:59:27;;;;;;;;;;;23.00;35.20;;;;;;5034217;28;20059;-87
2023/03/02 09:01:57;;;;;;;;;;;23.20;35.20;;;;;;5033360;28;19952;-87
2023/03/02 09:04:26;;;;;;;;;;;23.30;35.10;;;;;;5033140;28;20340;-87
2023/03/02 09:06:51;;;;;;;;;;;23.20;35.10;;;;;;5031577;28;20018;-87
2023/03/02 09:09:17;;;;;;;;;;;23.40;34.80;;;;;;5049755;28;19927;-87
2023/03/02 09:11:43;;;;;;;;;;;23.60;34.50;;;;;;5053420;28;19955;-87
2023/03/02 09:14:09;;;;;;;;;;;23.70;34.30;;;;;;5035102;28;20172;-87
2023/03/02 09:16:35;;;;;;;;;;;23.70;34.20;;;;;;5033656;28;20171;-87
2023/03/02 09:19:00;;;;;;;;;;;23.70;34.00;;;;;;5034879;28;20170;-87
2023/03/02 09:21:26;;;;;;;;;;;23.70;34.00;;;;;;5051143;28;19974;-87
2023/03/02 09:23:54;;;;;;;;;;;23.70;34.00;;;;;;5033218;28;20006;-86
2023/03/02 09:26:23;;;;;;;;;;;23.70;34.00;;;;;;5030817;28;19944;-87
2023/03/02 09:28:48;;;;;;;;;;;23.80;33.80;;;;;;5031689;28;20445;-86
2023/03/02 09:31:14;;;;;;;;;;;23.90;33.60;;;;;;5031314;28;19909;-87
2023/03/02 09:33:40;;;;;;;;;;;24.00;33.50;;;;;;5032546;28;19978;-87
2023/03/02 09:36:10;;;;;;;;;;;24.00;33.50;;;;;;5048021;28;19916;-87
2023/03/02 09:38:35;;;;;;;;;;;24.00;33.50;;;;;;5046685;28;19909;-87
2023/03/02 09:41:07;;;;;;;;;;;24.00;33.50;;;;;;5031365;28;19924;-87
2023/03/02 09:43:51;;;;;;;;;;;24.00;33.50;;;;;;5032968;28;19913;-87
2023/03/02 09:46:36;;;;;;;;;;;23.80;33.40;;;;;;5045728;28;19909;-87
2023/03/02 09:49:20;;;;;;;;;;;23.70;33.60;;;;;;5048604;28;19909;-87
2023/03/02 09:51:49;;;;;;;;;;;23.60;33.70;;;;;;5045006;28;19908;-87
2023/03/02 09:54:22;;;;;;;;;;;23.30;33.80;;;;;;5029447;28;19971;-87
2023/03/02 09:56:49;;;;;;;;;;;23.00;34.00;;;;;;5046751;28;20345;-87
2023/03/02 09:59:37;;;;;;;;;;;22.60;34.10;;;;;;5030255;28;19909;-87
2023/03/02 10:02:09;;;;;;;;;;;21.80;34.30;;;;;;5048544;28;20164;-87
2023/03/02 10:04:46;;;;;;;;;;;20.80;34.80;;;;;;5049079;28;19983;-87
2023/03/02 10:07:13;;;;;;;;;;;20.10;35.40;;;;;;5029105;28;20088;-87
2023/03/02 10:09:39;;;;;;;;;;;19.40;35.90;;;;;;5031091;28;20065;-87
2023/03/02 10:12:19;;;;;;;;;;;18.80;36.50;;;;;;5031903;28;20199;-87
2023/03/02 10:15:08;;;;;;;;;;;18.30;37.00;;;;;;5030136;28;20164;-87
2023/03/02 10:17:38;;;;;;;;;;;17.90;37.50;;;;;;5030283;28;19994;-87
2023/03/02 10:20:14;;;;;;;;;;;17.50;37.90;;;;;;5029309;28;19959;-87
2023/03/02 10:22:43;;;;;;;;;;;17.10;38.40;;;;;;5028401;28;20290;-87
2023/03/02 10:25:28;;;;;;;;;;;16.90;38.70;;;;;;5028504;28;19919;-87
2023/03/02 10:28:13;;;;;;;;;;;16.70;39.00;;;;;;5048087;28;19948;-87
2023/03/02 10:30:39;;;;;;;;;;;16.50;39.20;;;;;;5031089;28;19948;-88
2023/03/02 10:33:12;;;;;;;;;;;16.60;39.40;;;;;;5029608;28;20136;-87
2023/03/02 10:35:44;;;;;;;;;;;16.70;39.30;;;;;;5027316;28;20099;-87
2023/03/02 10:38:16;;;;;;;;;;;16.70;39.20;;;;;;5028931;28;20294;-87
2023/03/02 10:40:42;;;;;;;;;;;16.50;39.20;;;;;;5047577;28;19993;-87
2023/03/02 10:43:19;;;;;;;;;;;16.50;39.30;;;;;;5047181;28;19921;-87
2023/03/02 10:45:45;;;;;;;;;;;16.30;39.30;;;;;;5045861;28;19967;-87
2023/03/02 10:48:14;;;;;;;;;;;16.20;39.50;;;;;;5047823;28;19916;-87
2023/03/02 10:50:43;;;;;;;;;;;16.10;39.60;;;;;;5047973;28;19909;-87
2023/03/02 10:53:18;;;;;;;;;;;16.10;39.70;;;;;;5029602;28;19987;-87
2023/03/02 10:55:48;;;;;;;;;;;16.10;39.70;;;;;;5029424;28;19908;-87
2023/03/02 10:58:24;;;;;;;;;;;16.10;39.80;;;;;;5029475;28;20060;-87
2023/03/02 11:01:01;;;;;;;;;;;16.10;39.80;;;;;;5029617;28;20333;-87
2023/03/02 11:03:30;;;;;;;;;;;16.10;39.80;;;;;;5030585;28;20197;-87
2023/03/02 11:05:56;;;;;;;;;;;16.00;39.90;;;;;;5030091;28;19923;-88
2023/03/02 11:08:23;;;;;;;;;;;16.00;40.00;;;;;;5029334;28;20398;-87
2023/03/02 11:10:59;;;;;;;;;;;15.80;39.90;;;;;;5047485;28;20120;-87
2023/03/02 11:13:27;;;;;;;;;;;15.80;40.10;;;;;;5030334;28;19909;-87
2023/03/02 11:16:02;;;;;;;;;;;15.60;40.20;;;;;;5027918;28;20310;-87
2023/03/02 11:18:31;;;;;;;;;;;15.50;40.20;;;;;;5026963;28;20318;-87
2023/03/02 11:21:00;;;;;;;;;;;15.40;40.40;;;;;;5028339;28;19948;-87
2023/03/02 11:23:48;;;;;;;;;;;15.30;40.50;;;;;;5028022;28;19913;-87
2023/03/02 11:26:23;;;;;;;;;;;15.20;40.70;;;;;;4966583;28;20211;-87
2023/03/02 11:28:52;;;;;;;;;;;15.00;40.80;;;;;;5039960;28;20155;-88
2023/03/02 11:31:22;;;;;;;;;;;14.90;41.00;;;;;;5025918;28;19959;-86
2023/03/02 11:34:10;;;;;;;;;;;14.70;41.00;;;;;;5024662;28;20411;-87
2023/03/02 11:36:52;;;;;;;;;;;14.60;41.10;;;;;;5027710;28;20035;-87
2023/03/02 11:39:22;;;;;;;;;;;14.50;41.20;;;;;;5043336;28;19912;-86
2023/03/02 11:41:47;;;;;;;;;;;14.40;41.40;;;;;;5043910;28;19913;-87
2023/03/02 11:44:16;;;;;;;;;;;14.30;41.50;;;;;;5028144;28;19916;-87
2023/03/02 11:46:44;;;;;;;;;;;14.30;41.60;;;;;;5028447;28;20281;-87
2023/03/02 11:49:16;;;;;;;;;;;14.20;41.60;;;;;;5026555;28;19908;-87
2023/03/02 11:51:47;;;;;;;;;;;14.20;41.70;;;;;;5027198;28;19912;-87
2023/03/02 11:54:13;;;;;;;;;;;14.30;41.60;;;;;;5044843;28;19908;-86
2023/03/02 11:56:39;;;;;;;;;;;14.40;41.50;;;;;;5027036;28;19909;-86
2023/03/02 11:59:14;;;;;;;;;;;14.40;41.40;;;;;;5026241;28;20214;-87
2023/03/02 12:01:42;;;;;;;;;;;14.50;41.20;;;;;;5025379;28;20081;-86
2023/03/02 12:04:10;;;;;;;;;;;14.60;41.10;;;;;;5024907;28;19909;-87
2023/03/02 12:06:37;;;;;;;;;;;14.70;41.00;;;;;;5025050;28;19909;-86
2023/03/02 12:09:21;;;;;;;;;;;14.80;40.90;;;;;;5027941;28;19908;-87
2023/03/02 12:11:52;;;;;;;;;;;15.00;40.70;;;;;;5042929;28;19919;-86
2023/03/02 12:14:26;;;;;;;;;;;15.10;40.70;;;;;;5024724;28;19951;-87
2023/03/02 12:17:02;;;;;;;;;;;15.30;40.60;;;;;;5051112;28;20074;-86
2023/03/02 12:19:37;;;;;;;;;;;15.30;40.50;;;;;;5028205;28;20153;-87
2023/03/02 12:22:09;;;;;;;;;;;15.30;40.50;;;;;;5040408;28;20211;-86
2023/03/02 12:24:36;;;;;;;;;;;15.20;40.40;;;;;;5021941;28;20281;-86
2023/03/02 12:27:19;;;;;;;;;;;15.20;40.60;;;;;;5039547;28;19974;-87
2023/03/02 12:29:47;;;;;;;;;;;15.10;40.70;;;;;;5021522;28;20530;-86
2023/03/02 12:32:32;;;;;;;;;;;15.00;40.80;;;;;;5042149;28;19913;-86
2023/03/02 12:35:07;;;;;;;;;;;14.90;41.00;;;;;;5024922;28;19909;-87
2023/03/02 12:37:48;;;;;;;;;;;14.80;41.10;;;;;;5022368;28;20178;-86
2023/03/02 12:40:28;;;;;;;;;;;14.60;41.20;;;;;;5025695;28;20390;-86
2023/03/02 12:43:13;;;;;;;;;;;14.60;41.50;;;;;;5023837;28;20194;-86
2023/03/02 12:45:57;;;;;;;;;;;14.50;42.10;;;;;;5044347;28;19909;-86
2023/03/02 12:48:26;;;;;;;;;;;14.40;41.90;;;;;;5043252;28;19983;-87
2023/03/02 12:50:54;;;;;;;;;;;14.30;42.00;;;;;;5028362;28;19915;-86
2023/03/02 12:53:19;;;;;;;;;;;14.20;42.10;;;;;;5028667;28;19970;-86
2023/03/02 12:55:45;;;;;;;;;;;14.10;42.30;;;;;;5028751;28;19936;-86
2023/03/02 12:58:18;;;;;;;;;;;14.10;42.40;;;;;;5028505;28;20362;-86
2023/03/02 13:00:52;;;;;;;;;;;14.00;42.50;;;;;;5030887;28;19963;-86
2023/03/02 13:03:18;;;;;;;;;;;13.90;42.60;;;;;;5044283;28;19913;-86
2023/03/02 13:05:45;;;;;;;;;;;13.80;42.70;;;;;;5027674;28;20180;-86
2023/03/02 13:08:14;;;;;;;;;;;13.80;42.80;;;;;;5026826;28;19959;-86
2023/03/02 13:10:41;;;;;;;;;;;13.70;42.90;;;;;;5029119;28;19963;-87
2023/03/02 13:13:14;;;;;;;;;;;13.60;42.90;;;;;;5044830;28;19909;-87
2023/03/02 13:16:19;;;;;;;;;;;13.60;43.00;;;;;;5027835;28;20157;-86
2023/03/02 13:18:45;;;;;;;;;;;13.50;43.00;;;;;;4966923;28;20020;-86
2023/03/02 13:21:12;;;;;;;;;;;13.50;43.10;;;;;;4982783;28;19909;-87
2023/03/02 13:23:44;;;;;;;;;;;13.50;43.20;;;;;;5014900;28;20289;-86
2023/03/02 13:26:23;;;;;;;;;;;13.60;43.10;;;;;;5026858;28;19916;-87
2023/03/02 13:28:58;;;;;;;;;;;13.60;43.10;;;;;;5030838;28;19982;-87
2023/03/02 13:31:24;;;;;;;;;;;13.70;42.90;;;;;;5033755;28;20500;-87
2023/03/02 13:33:51;;;;;;;;;;;13.70;42.80;;;;;;5029853;28;19944;-86
2023/03/02 13:36:20;;;;;;;;;;;13.80;42.70;;;;;;5032046;28;20180;-86
2023/03/02 13:38:50;;;;;;;;;;;14.00;42.40;;;;;;5032890;28;19956;-86
2023/03/02 13:41:23;;;;;;;;;;;14.10;42.40;;;;;;5028457;28;19927;-86
2023/03/02 13:43:49;;;;;;;;;;;14.30;42.10;;;;;;5027837;28;20305;-87
2023/03/02 13:46:14;;;;;;;;;;;14.40;42.00;;;;;;5030612;28;19944;-87
2023/03/02 13:48:40;;;;;;;;;;;14.50;41.80;;;;;;5026184;28;19913;-87
2023/03/02 13:51:16;;;;;;;;;;;14.60;41.80;;;;;;5008215;28;19909;-86
2023/03/02 13:53:49;;;;;;;;;;;14.60;41.70;;;;;;5009043;28;19924;-86
2023/03/02 13:56:16;;;;;;;;;;;14.60;41.70;;;;;;5007478;28;19924;-87
2023/03/02 13:58:41;;;;;;;;;;;14.50;41.80;;;;;;5005739;28;20014;-87
2023/03/02 14:01:07;;;;;;;;;;;14.40;41.90;;;;;;5008390;28;20104;-86
2023/03/02 14:03:33;;;;;;;;;;;14.30;42.10;;;;;;5007845;28;20084;-86
2023/03/02 14:05:59;;;;;;;;;;;14.20;42.10;;;;;;5005909;28;19909;-86
2023/03/02 14:08:25;;;;;;;;;;;14.20;42.20;;;;;;5024436;28;19917;-86
2023/03/02 14:10:57;;;;;;;;;;;14.00;42.40;;;;;;5006467;28;19917;-86
2023/03/02 14:13:36;;;;;;;;;;;14.00;42.50;;;;;;5006079;28;20053;-86
2023/03/02 14:16:02;;;;;;;;;;;13.90;42.70;;;;;;5026597;28;20245;-86
2023/03/02 14:18:34;;;;;;;;;;;13.80;42.70;;;;;;5023716;28;19910;-87
2023/03/02 14:21:07;;;;;;;;;;;13.70;42.80;;;;;;5007632;28;19956;-87
2023/03/02 14:23:37;;;;;;;;;;;13.70;43.00;;;;;;5009236;28;19921;-86
2023/03/02 14:26:07;;;;;;;;;;;13.60;43.10;;;;;;5022451;28;19913;-86
2023/03/02 14:28:39;;;;;;;;;;;13.60;43.30;;;;;;5042606;28;20285;-86
2023/03/02 14:31:04;;;;;;;;;;;13.50;43.40;;;;;;5027579;28;20019;-87